ENSH

Svolvær Helle Airport

Svolvær, Norway
METAR ENSH 201250Z 21019KT 9999 -SHRA SCT020 BKN035 09/06 Q1012 RMK WIND 150FT 19021G32KT
Observed Flight Rules
Oct-20 @ 12:50 UTC (55 minutes ago) Visual Flight Rules
Wind Visibility Clouds Conditions
210° at 19 knots 10,000+ meters
  • Scattered at 2,000' AGL
  • Broken at 3,500' AGL
  • Light Rain
Temperatures Readings
Current 9°C / 48°F
Dewpoint 6°C / 43°F
Humidity 82%
Altimeter 29.88" Hg
Pressure 1012 hPa
Elevation 9
METAR ENSH 201250Z 21019KT 9999 -SHRA SCT020 BKN035 09/06 Q1012 RMK WIND 150FT 19021G32KT
Observed Flight Rules
Oct-20 @ 12:50 UTC
(55 minutes ago)
VFR
Wind Visibility
210° at 19 knots 10,000+ meters
Clouds
  • Scattered at 2,000' AGL
  • Broken at 3,500' AGL
Conditions
  • Light Rain
Temperature Dewpoint
9°C / 48°F 6°C / 43°F
Humidity Altimeter Pressure
82% 29.88" Hg 1012 hPa